Time;durP1;ratioP1;P1;durP2;ratioP2;P2;SDS_P1;SDS_P2;PMS_P1;PMS_P2;Temp;Humidity;BMP_temperature;BMP_pressure;BME280_temperature;BME280_humidity;BME280_pressure;Samples;Min_cycle;Max_cycle;Signal;HPM_P1;HPM_P2
2023/04/23 00:01:01;;;;;;;;;1.25;1.00;;;;;14.78;55.83;100112.00;5070218;27;46219;-80
2023/04/23 00:03:29;;;;;;;;;2.00;1.00;;;;;14.79;56.39;100107.56;5070893;27;45811;-79
2023/04/23 00:05:56;;;;;;;;;1.75;1.00;;;;;14.76;56.32;100099.91;5063230;28;45955;-81
2023/04/23 00:08:22;;;;;;;;;1.50;1.00;;;;;14.73;56.19;100089.69;5067993;28;46352;-81
2023/04/23 00:10:48;;;;;;;;;0.75;0.50;;;;;14.77;56.52;100104.22;5070559;28;45913;-80
2023/04/23 00:13:13;;;;;;;;;2.00;1.00;;;;;14.73;56.42;100094.94;5065176;27;45545;-81
2023/04/23 00:15:39;;;;;;;;;3.00;3.00;;;;;14.77;56.17;100107.69;5067514;28;45849;-79
2023/04/23 00:18:05;;;;;;;;;4.00;1.50;;;;;14.77;56.66;100110.31;5070667;27;45954;-81
2023/04/23 00:20:30;;;;;;;;;3.00;1.75;;;;;14.77;56.64;100107.69;5070537;27;46021;-81
2023/04/23 00:22:55;;;;;;;;;1.00;1.00;;;;;14.80;56.44;100120.56;5070756;27;45735;-79
2023/04/23 00:25:21;;;;;;;;;1.00;1.00;;;;;14.78;56.53;100117.25;5068747;27;46572;-81
2023/04/23 00:27:47;;;;;;;;;3.00;2.25;;;;;14.76;56.83;100110.47;5067215;28;46192;-81
2023/04/23 00:30:12;;;;;;;;;1.50;1.00;;;;;14.77;56.64;100109.50;5069932;27;46142;-81
2023/04/23 00:32:38;;;;;;;;;2.25;1.00;;;;;14.77;57.21;100105.06;5070100;28;45660;-80
2023/04/23 00:35:04;;;;;;;;;1.00;1.00;;;;;14.77;57.14;100112.13;5071036;27;46021;-81
2023/04/23 00:37:30;;;;;;;;;1.00;1.00;;;;;14.73;56.82;100108.97;5070492;27;46078;-79
2023/04/23 00:39:55;;;;;;;;;3.00;1.00;;;;;14.77;56.98;100106.84;5070007;28;46046;-82
2023/04/23 00:42:20;;;;;;;;;3.25;2.50;;;;;14.72;56.94;100102.03;5070140;27;45776;-82
2023/04/23 00:44:46;;;;;;;;;2.00;2.00;;;;;14.68;57.21;100109.38;5070695;27;45936;-82
2023/04/23 00:47:13;;;;;;;;;0.75;0.25;;;;;14.66;57.11;100100.81;5070020;27;45789;-80
2023/04/23 00:49:41;;;;;;;;;1.00;1.00;;;;;14.66;57.30;100107.88;5069694;28;46306;-81
2023/04/23 00:52:06;;;;;;;;;2.00;1.00;;;;;14.70;57.76;100099.53;5070365;28;45791;-79
2023/04/23 00:54:32;;;;;;;;;1.00;1.00;;;;;14.70;57.33;100106.59;5070668;27;45692;-79
2023/04/23 00:56:58;;;;;;;;;1.50;1.00;;;;;14.67;57.56;100088.47;5071230;27;46091;-78
2023/04/23 00:59:30;;;;;;;;;1.50;1.00;;;;;14.70;57.66;100098.69;5073504;27;46213;-78
2023/04/23 01:01:56;;;;;;;;;2.00;1.25;;;;;14.71;57.50;100089.81;5078014;28;45803;-79
2023/04/23 01:04:26;;;;;;;;;2.25;1.00;;;;;14.73;57.83;100092.31;5078922;27;45614;-79
2023/04/23 01:06:52;;;;;;;;;1.75;1.00;;;;;14.77;58.16;100085.75;5065421;28;45602;-80
2023/04/23 01:09:17;;;;;;;;;2.00;1.50;;;;;14.74;57.64;100081.59;5074956;28;46395;-76
2023/04/23 01:11:43;;;;;;;;;3.00;2.00;;;;;14.73;57.69;100074.69;5071428;28;45658;-76
2023/04/23 01:14:10;;;;;;;;;1.50;1.00;;;;;14.70;57.86;100080.25;5071278;28;46175;-77
2023/04/23 01:16:37;;;;;;;;;1.00;1.00;;;;;14.68;58.20;100076.94;5069254;28;45933;-76
2023/04/23 01:19:05;;;;;;;;;1.75;1.25;;;;;14.61;57.89;100074.06;5070332;27;45793;-79
2023/04/23 01:21:32;;;;;;;;;1.00;1.00;;;;;14.57;58.32;100069.25;5067826;28;45808;-78
2023/04/23 01:23:58;;;;;;;;;2.00;1.75;;;;;14.55;58.26;100065.91;5071876;28;45828;-76
2023/04/23 01:26:23;;;;;;;;;1.00;1.00;;;;;14.57;58.63;100070.06;5068336;27;45778;-78
2023/04/23 01:28:50;;;;;;;;;1.00;1.00;;;;;14.54;58.72;100065.06;5073275;27;46194;-79
2023/04/23 01:31:16;;;;;;;;;2.00;1.00;;;;;14.53;58.97;100065.22;5073296;27;46053;-77
2023/04/23 01:33:42;;;;;;;;;1.00;1.00;;;;;14.57;58.66;100066.59;5073442;27;45855;-77
2023/04/23 01:36:08;;;;;;;;;2.50;1.50;;;;;14.57;58.85;100069.25;5085881;27;46708;-80
2023/04/23 01:38:36;;;;;;;;;1.50;1.00;;;;;14.59;58.70;100062.00;5069315;28;46052;-80
2023/04/23 01:41:02;;;;;;;;;3.00;1.00;;;;;14.56;58.67;100064.94;5069486;27;45814;-78
2023/04/23 01:43:28;;;;;;;;;1.00;1.00;;;;;14.58;58.77;100066.44;5073306;27;45666;-78
2023/04/23 01:45:53;;;;;;;;;2.00;1.25;;;;;14.58;58.52;100055.06;5073159;27;46146;-77
2023/04/23 01:48:19;;;;;;;;;2.00;1.75;;;;;14.58;58.55;100050.63;5073246;27;45893;-80
2023/04/23 01:50:44;;;;;;;;;2.25;2.00;;;;;14.60;58.51;100053.09;5073599;27;45988;-80
2023/04/23 01:53:10;;;;;;;;;3.00;1.50;;;;;14.59;59.03;100052.28;5072751;27;45653;-81
2023/04/23 01:55:39;;;;;;;;;2.00;2.00;;;;;14.62;59.02;100044.09;5070529;28;46598;-77
2023/04/23 01:58:05;;;;;;;;;3.50;1.00;;;;;14.62;58.76;100037.97;5071064;28;45748;-80
2023/04/23 02:00:31;;;;;;;;;3.00;1.50;;;;;14.63;58.85;100031.69;5072253;27;45869;-79
2023/04/23 02:02:56;;;;;;;;;2.50;1.00;;;;;14.60;58.75;100035.47;5071601;28;45895;-78
2023/04/23 02:05:24;;;;;;;;;1.75;1.75;;;;;14.64;58.51;100033.38;5068051;27;45891;-79
2023/04/23 02:07:51;;;;;;;;;2.00;1.00;;;;;14.64;59.01;100028.94;5067274;28;46071;-78
2023/04/23 02:10:17;;;;;;;;;1.00;1.00;;;;;14.65;58.98;100046.41;5072950;28;45774;-80
2023/04/23 02:12:44;;;;;;;;;2.75;1.00;;;;;14.62;58.86;100036.19;5065263;28;45963;-80
2023/04/23 02:15:10;;;;;;;;;2.00;2.00;;;;;14.64;58.59;100041.28;5072728;28;45672;-79
2023/04/23 02:17:38;;;;;;;;;3.50;3.00;;;;;14.63;58.97;100042.25;5071157;28;46546;-80
2023/04/23 02:20:05;;;;;;;;;2.50;2.00;;;;;14.63;58.75;100039.63;5072678;27;45632;-79
2023/04/23 02:22:31;;;;;;;;;1.50;1.00;;;;;14.64;59.05;100050.03;5072638;28;45710;-80
2023/04/23 02:24:57;;;;;;;;;2.00;2.00;;;;;14.62;58.81;100036.19;5072467;27;47003;-79
2023/04/23 02:27:22;;;;;;;;;1.00;1.00;;;;;14.62;58.83;100041.44;5072340;28;46206;-80
2023/04/23 02:29:48;;;;;;;;;2.00;2.00;;;;;14.60;58.50;100039.94;5067064;28;45747;-81
2023/04/23 02:32:14;;;;;;;;;2.00;1.25;;;;;14.58;59.25;100040.06;5070504;27;45663;-80
2023/04/23 02:34:40;;;;;;;;;2.00;1.75;;;;;14.57;58.97;100041.06;5072768;27;46269;-80
2023/04/23 02:37:05;;;;;;;;;2.00;2.00;;;;;14.57;58.68;100034.97;5072506;28;46039;-79
2023/04/23 02:39:31;;;;;;;;;1.75;1.75;;;;;14.53;59.20;100030.94;5072198;27;45748;-79
2023/04/23 02:41:57;;;;;;;;;3.00;2.00;;;;;14.54;58.80;100030.81;5069365;28;45740;-79
2023/04/23 02:44:23;;;;;;;;;2.00;2.00;;;;;14.52;58.73;100021.41;5072300;28;45753;-80
2023/04/23 02:46:49;;;;;;;;;3.75;2.25;;;;;14.49;59.10;100030.41;5070255;28;48375;-79
2023/04/23 02:49:14;;;;;;;;;2.75;2.75;;;;;14.43;59.01;100022.28;5072908;27;45995;-79
2023/04/23 02:51:40;;;;;;;;;2.25;2.25;;;;;14.43;59.39;100014.38;5072612;27;46087;-79
2023/04/23 02:54:06;;;;;;;;;4.00;3.00;;;;;14.43;59.17;100019.63;5068181;27;47554;-80
2023/04/23 02:56:31;;;;;;;;;3.00;3.00;;;;;14.36;59.42;100010.66;5069674;28;46436;-79
2023/04/23 02:58:57;;;;;;;;;2.50;2.50;;;;;14.35;59.09;100015.09;5072114;27;45721;-79
2023/04/23 03:01:22;;;;;;;;;2.75;2.25;;;;;14.34;59.57;100016.06;5071822;27;45865;-79
2023/04/23 03:03:47;;;;;;;;;3.25;3.00;;;;;14.31;59.33;100018.97;5067358;27;45961;-79
2023/04/23 03:06:13;;;;;;;;;2.75;2.75;;;;;14.30;59.74;100010.22;5062277;28;46346;-80
2023/04/23 03:08:38;;;;;;;;;3.75;2.00;;;;;14.26;59.32;100010.69;5073191;28;45694;-80
2023/04/23 03:11:03;;;;;;;;;2.50;2.50;;;;;14.24;59.69;100010.03;5073439;27;45652;-80
2023/04/23 03:13:29;;;;;;;;;3.00;3.00;;;;;14.21;59.91;100008.50;5071644;27;46085;-79
2023/04/23 03:15:55;;;;;;;;;3.00;3.00;;;;;14.19;59.94;100004.38;5072102;27;46113;-80
2023/04/23 03:18:20;;;;;;;;;3.25;2.50;;;;;14.19;59.91;99999.09;5070845;28;45777;-79
2023/04/23 03:20:46;;;;;;;;;2.25;2.00;;;;;14.17;59.44;99995.75;5067317;27;45980;-81
2023/04/23 03:23:12;;;;;;;;;4.00;3.00;;;;;14.11;59.90;99981.38;5071048;28;45864;-79
2023/04/23 03:25:37;;;;;;;;;3.75;3.00;;;;;14.08;60.04;99992.22;5071590;27;45983;-79
2023/04/23 03:28:02;;;;;;;;;3.00;3.00;;;;;14.07;59.75;99984.44;5071565;28;45788;-80
2023/04/23 03:30:29;;;;;;;;;3.50;3.00;;;;;14.04;59.98;99985.56;5071417;27;45720;-79
2023/04/23 03:32:55;;;;;;;;;3.50;3.50;;;;;14.02;59.98;99986.69;5071188;27;46204;-79
2023/04/23 03:35:22;;;;;;;;;2.00;2.00;;;;;14.00;60.15;99989.47;5071892;27;45835;-80
2023/04/23 03:37:47;;;;;;;;;4.75;3.50;;;;;13.95;59.94;99975.06;5066970;27;45653;-81
2023/04/23 03:40:14;;;;;;;;;3.25;2.75;;;;;13.97;60.34;99987.13;5068034;27;45954;-80
2023/04/23 03:42:39;;;;;;;;;2.75;2.75;;;;;13.96;60.30;99985.47;5070630;27;45778;-79
2023/04/23 03:45:06;;;;;;;;;3.00;3.00;;;;;13.92;60.26;99976.22;5070350;27;45987;-80
2023/04/23 03:47:31;;;;;;;;;3.75;2.75;;;;;13.92;60.10;99984.13;5071012;27;45974;-80
2023/04/23 03:49:58;;;;;;;;;3.00;3.00;;;;;13.91;60.41;99987.72;5071325;28;45562;-79
2023/04/23 03:52:23;;;;;;;;;4.00;2.25;;;;;13.86;60.48;99988.16;5071117;27;45841;-80
2023/04/23 03:54:49;;;;;;;;;3.75;2.75;;;;;13.80;60.85;99974.75;5070657;27;45761;-78
2023/04/23 03:57:15;;;;;;;;;6.25;3.00;;;;;13.79;60.88;99973.06;5071062;27;46188;-78
2023/04/23 03:59:40;;;;;;;;;3.00;3.00;;;;;13.81;60.48;99976.41;5071125;28;46272;-79
2023/04/23 04:02:05;;;;;;;;;4.25;3.00;;;;;13.79;60.49;99978.34;5070503;28;45763;-78
2023/04/23 04:04:32;;;;;;;;;4.50;2.00;;;;;13.77;60.88;99986.38;5071053;27;45857;-79
2023/04/23 04:07:00;;;;;;;;;4.00;3.00;;;;;13.76;60.66;99986.53;5065321;27;45792;-79
2023/04/23 04:09:26;;;;;;;;;2.50;2.00;;;;;13.73;60.96;99977.13;5070907;27;45927;-79
2023/04/23 04:11:55;;;;;;;;;5.50;3.00;;;;;13.71;60.66;99965.88;5066408;27;46718;-78
2023/04/23 04:14:21;;;;;;;;;3.50;2.75;;;;;13.71;60.64;99960.63;5070005;28;45815;-79
2023/04/23 04:16:47;;;;;;;;;6.75;4.00;;;;;13.70;60.57;99963.41;5070394;27;45743;-80
2023/04/23 04:19:13;;;;;;;;;3.25;3.00;;;;;13.69;60.74;99969.66;5070887;27;45821;-79
2023/04/23 04:21:38;;;;;;;;;4.00;4.00;;;;;13.62;61.07;99958.03;5070859;27;46616;-80
2023/04/23 04:24:03;;;;;;;;;4.75;4.00;;;;;13.62;61.04;99958.03;5070351;27;45833;-79
2023/04/23 04:26:31;;;;;;;;;4.50;3.00;;;;;13.61;60.60;99954.56;5070094;27;46014;-78
2023/04/23 04:29:03;;;;;;;;;4.25;3.75;;;;;13.59;61.09;99953.06;5082849;27;45659;-79
2023/04/23 04:31:29;;;;;;;;;3.75;3.00;;;;;13.55;61.08;99949.88;5065582;28;46433;-80
2023/04/23 04:33:55;;;;;;;;;3.75;3.75;;;;;13.53;61.10;99959.75;5070304;28;46516;-79
2023/04/23 04:36:23;;;;;;;;;4.25;2.50;;;;;13.52;60.93;99958.06;5070700;28;46746;-78
2023/04/23 04:38:50;;;;;;;;;3.00;3.00;;;;;13.49;61.25;99958.38;5071013;28;45916;-81
2023/04/23 04:41:16;;;;;;;;;2.00;2.00;;;;;13.44;60.76;99943.00;5066904;27;45733;-79
2023/04/23 04:43:42;;;;;;;;;3.00;3.00;;;;;13.40;61.41;99946.88;5070088;28;45685;-75
2023/04/23 04:46:10;;;;;;;;;3.00;2.75;;;;;13.38;61.29;99948.03;5063334;27;45725;-80
2023/04/23 04:48:35;;;;;;;;;3.00;2.50;;;;;13.37;61.41;99939.28;5064346;28;46818;-80
2023/04/23 04:51:01;;;;;;;;;4.50;2.00;;;;;13.37;61.42;99941.94;5070398;28;46396;-79
2023/04/23 04:53:27;;;;;;;;;3.00;2.50;;;;;13.38;61.35;99934.88;5069894;27;45660;-80
2023/04/23 04:55:52;;;;;;;;;3.50;2.75;;;;;13.40;60.97;99930.28;5070471;28;45658;-79
2023/04/23 04:58:17;;;;;;;;;4.50;4.00;;;;;13.38;60.91;99926.97;5069961;27;45802;-79
2023/04/23 05:00:43;;;;;;;;;4.00;4.00;;;;;13.37;60.98;99925.31;5069813;27;46443;-78
2023/04/23 05:03:08;;;;;;;;;3.00;3.00;;;;;13.36;61.00;99919.22;5069014;28;45998;-81
2023/04/23 05:05:34;;;;;;;;;2.00;2.00;;;;;13.36;60.77;99921.00;5065384;27;45801;-80
2023/04/23 05:08:01;;;;;;;;;2.50;2.00;;;;;13.36;61.08;99926.28;5064151;27;45760;-79
2023/04/23 05:10:27;;;;;;;;;3.00;2.00;;;;;13.33;61.16;99927.38;5070133;28;46480;-80
2023/04/23 05:12:53;;;;;;;;;2.75;2.00;;;;;13.35;60.82;99930.72;5068715;28;48229;-79
2023/04/23 05:15:19;;;;;;;;;3.00;2.00;;;;;13.34;61.10;99918.53;5071363;28;45750;-80
2023/04/23 05:17:44;;;;;;;;;3.75;2.00;;;;;13.33;61.05;99923.94;5070751;28;46160;-80
2023/04/23 05:20:10;;;;;;;;;2.00;1.50;;;;;13.30;60.99;99927.69;5074211;27;46414;-78
2023/04/23 05:22:37;;;;;;;;;3.00;2.75;;;;;13.29;61.09;99923.38;5075615;28;47411;-79
2023/04/23 05:25:04;;;;;;;;;2.00;2.00;;;;;13.27;61.17;99917.44;5075709;28;45825;-81
2023/04/23 05:27:29;;;;;;;;;3.25;2.00;;;;;13.32;61.02;99922.28;5070398;28;46104;-82
2023/04/23 05:29:55;;;;;;;;;3.00;2.00;;;;;13.28;60.90;99924.34;5069844;28;46066;-80
2023/04/23 05:32:20;;;;;;;;;1.00;1.00;;;;;13.28;60.70;99924.34;5068427;27;46165;-80
2023/04/23 05:34:45;;;;;;;;;2.00;2.00;;;;;13.32;61.42;99930.16;5070247;28;45803;-81
2023/04/23 05:37:11;;;;;;;;;4.25;2.00;;;;;13.29;61.29;99910.22;5068793;27;45807;-81
2023/04/23 05:39:36;;;;;;;;;3.00;2.00;;;;;13.29;61.05;99909.41;5061184;27;47277;-80
2023/04/23 05:42:01;;;;;;;;;4.50;2.75;;;;;13.31;61.19;99913.56;5069689;27;46212;-80
2023/04/23 05:44:28;;;;;;;;;2.75;2.00;;;;;13.33;60.83;99903.69;5069008;27;46171;-78
2023/04/23 05:46:53;;;;;;;;;2.75;1.75;;;;;13.33;61.19;99908.16;5068139;28;45673;-80
2023/04/23 05:49:18;;;;;;;;;7.00;2.00;;;;;13.35;61.25;99906.19;5069264;27;45972;-77
2023/04/23 05:51:44;;;;;;;;;3.25;1.25;;;;;13.34;60.70;99900.09;5065763;27;48546;-80
2023/04/23 05:54:09;;;;;;;;;3.00;3.00;;;;;13.29;61.32;99899.69;5068577;28;45854;-78
2023/04/23 05:56:35;;;;;;;;;2.50;2.00;;;;;13.31;61.49;99904.84;5069447;27;45587;-78
2023/04/23 05:59:00;;;;;;;;;3.00;3.00;;;;;13.31;61.10;99910.94;5069683;28;46507;-79
2023/04/23 06:01:25;;;;;;;;;2.25;2.00;;;;;13.32;61.42;99909.97;5069347;27;46969;-77
2023/04/23 06:03:51;;;;;;;;;1.75;1.00;;;;;13.34;61.49;99900.09;5063282;28;45893;-76
2023/04/23 06:06:16;;;;;;;;;2.75;2.00;;;;;13.36;61.04;99898.16;5058348;28;45803;-76
2023/04/23 06:08:41;;;;;;;;;1.00;1.00;;;;;13.38;60.98;99900.66;5071655;28;45678;-76
2023/04/23 06:11:07;;;;;;;;;2.25;2.00;;;;;13.40;61.36;99893.44;5070278;28;46018;-73
2023/04/23 06:13:33;;;;;;;;;4.00;3.00;;;;;13.43;61.17;99895.78;5072378;27;46016;-77
2023/04/23 06:15:59;;;;;;;;;2.75;1.50;;;;;13.44;60.88;99898.25;5072822;28;45898;-74
2023/04/23 06:18:25;;;;;;;;;4.00;2.50;;;;;13.47;61.26;99902.41;5072057;28;45708;-78
2023/04/23 06:20:50;;;;;;;;;2.00;2.00;;;;;13.50;61.30;99901.28;5085133;27;48205;-75
2023/04/23 06:23:16;;;;;;;;;2.00;2.00;;;;;13.51;60.91;99895.88;5070693;28;45776;-74
2023/04/23 06:25:41;;;;;;;;;2.75;2.00;;;;;13.52;61.29;99899.34;5072974;27;45749;-75
2023/04/23 06:28:07;;;;;;;;;2.25;2.25;;;;;13.48;61.22;99895.34;5071894;27;48848;-76
2023/04/23 06:30:32;;;;;;;;;3.00;3.00;;;;;13.51;61.82;99897.69;5071938;28;45825;-74
2023/04/23 06:32:58;;;;;;;;;2.75;1.75;;;;;13.52;61.38;99891.44;5072332;27;45848;-74
2023/04/23 06:35:23;;;;;;;;;2.25;2.00;;;;;13.54;61.54;99898.25;5072819;27;45696;-76
2023/04/23 06:37:48;;;;;;;;;4.25;3.75;;;;;13.54;61.58;99886.88;5072476;27;46328;-77
2023/04/23 06:40:14;;;;;;;;;3.00;3.00;;;;;13.52;61.71;99880.91;5070026;27;46649;-77
2023/04/23 06:42:39;;;;;;;;;3.00;2.00;;;;;13.59;62.19;99882.00;5071162;28;45664;-75
2023/04/23 06:45:05;;;;;;;;;2.50;2.50;;;;;13.61;62.28;99885.31;5070921;27;45855;-75
2023/04/23 06:47:31;;;;;;;;;5.50;3.50;;;;;13.59;62.06;99882.84;5072055;27;46491;-77
2023/04/23 06:49:59;;;;;;;;;3.00;3.00;;;;;13.61;62.30;99885.31;5072019;28;45940;-76
2023/04/23 06:52:25;;;;;;;;;3.75;1.00;;;;;13.62;62.52;99881.69;5072212;27;46036;-76
2023/04/23 06:54:50;;;;;;;;;3.00;3.00;;;;;13.62;62.29;99873.81;5071167;28;46026;-77
2023/04/23 06:57:16;;;;;;;;;5.00;4.00;;;;;13.63;62.66;99875.47;5072305;28;46475;-75
2023/04/23 06:59:42;;;;;;;;;4.00;4.00;;;;;13.66;62.76;99880.44;5070070;28;46944;-76
2023/04/23 07:02:07;;;;;;;;;6.00;4.00;;;;;13.69;62.50;99883.63;5070179;27;45961;-76
2023/04/23 07:04:32;;;;;;;;;5.00;4.50;;;;;13.72;62.79;99879.84;5070113;27;45672;-75
2023/04/23 07:06:59;;;;;;;;;4.00;4.00;;;;;13.75;62.99;99874.31;5061678;27;46390;-75
2023/04/23 07:09:25;;;;;;;;;5.75;4.00;;;;;13.73;62.82;99855.19;5086517;27;46655;-78
2023/04/23 07:11:51;;;;;;;;;4.00;4.00;;;;;13.68;62.80;99850.38;5071631;28;45854;-75
2023/04/23 07:14:16;;;;;;;;;3.00;2.75;;;;;13.70;62.87;99866.84;5071107;28;45679;-77
2023/04/23 07:16:42;;;;;;;;;4.00;3.50;;;;;13.70;63.09;99858.97;5071165;27;46910;-74
2023/04/23 07:19:07;;;;;;;;;4.00;3.25;;;;;13.72;63.19;99859.63;5068617;27;46141;-76
2023/04/23 07:21:32;;;;;;;;;4.00;3.25;;;;;13.73;63.13;99853.38;5071613;27;45790;-78
2023/04/23 07:24:05;;;;;;;;;4.00;4.00;;;;;13.77;63.38;99840.75;5071933;27;45568;-78
2023/04/23 07:26:34;;;;;;;;;6.25;4.50;;;;;13.80;63.21;99843.09;5062213;27;46606;-77
2023/04/23 07:29:00;;;;;;;;;5.50;4.75;;;;;13.84;63.39;99853.19;5067354;27;46495;-77
2023/04/23 07:31:27;;;;;;;;;7.00;5.00;;;;;13.85;63.91;99851.38;5067899;27;46067;-75
2023/04/23 07:33:55;;;;;;;;;6.75;4.00;;;;;13.84;63.59;99840.00;5071235;28;46157;-75
2023/04/23 07:36:21;;;;;;;;;7.50;5.00;;;;;13.84;63.64;99837.38;5067335;28;46311;-73
2023/04/23 07:38:46;;;;;;;;;6.50;5.25;;;;;13.87;63.88;99841.53;5070528;27;46032;-75
2023/04/23 07:41:12;;;;;;;;;6.25;6.00;;;;;13.85;64.21;99831.13;5067798;27;45880;-75
2023/04/23 07:43:39;;;;;;;;;5.50;5.00;;;;;13.84;64.26;99828.66;5066476;27;45835;-75
2023/04/23 07:46:06;;;;;;;;;10.00;6.50;;;;;13.82;64.10;99825.31;5070085;28;46325;-74
2023/04/23 07:48:33;;;;;;;;;6.25;5.75;;;;;13.84;63.91;99820.75;5071429;27;45787;-76
2023/04/23 07:50:59;;;;;;;;;7.00;7.00;;;;;13.85;64.51;99830.31;5071869;27;45703;-74
2023/04/23 07:53:27;;;;;;;;;6.00;5.00;;;;;13.86;64.51;99847.78;5068044;27;45902;-78
2023/04/23 07:55:57;;;;;;;;;7.50;4.50;;;;;13.87;64.47;99833.63;5070372;28;47534;-79
2023/04/23 07:58:26;;;;;;;;;8.50;7.00;;;;;13.88;64.87;99830.81;5070966;27;46868;-73
2023/04/23 08:00:51;;;;;;;;;9.25;7.00;;;;;13.92;64.59;99817.38;5061071;28;45755;-73
2023/04/23 08:03:17;;;;;;;;;6.75;5.25;;;;;13.88;65.00;99808.94;5069968;28;46045;-73
2023/04/23 08:05:42;;;;;;;;;7.00;7.00;;;;;13.90;64.95;99806.16;5064924;27;45711;-75
2023/04/23 08:08:13;;;;;;;;;5.25;5.25;;;;;13.92;64.93;99793.69;5065029;28;48302;-75
2023/04/23 08:10:39;;;;;;;;;4.00;4.00;;;;;13.94;65.28;99792.53;5067254;28;45746;-75
2023/04/23 08:13:04;;;;;;;;;9.50;6.50;;;;;13.94;64.89;99782.00;5068968;27;45681;-74
2023/04/23 08:15:30;;;;;;;;;6.50;6.25;;;;;14.01;65.07;99782.22;5070908;27;45907;-74
2023/04/23 08:17:55;;;;;;;;;8.75;6.75;;;;;14.07;64.78;99776.38;5068876;27;46122;-74
2023/04/23 08:20:21;;;;;;;;;8.25;6.00;;;;;14.13;64.94;99760.78;5069341;28;46201;-76
2023/04/23 08:22:47;;;;;;;;;6.75;6.75;;;;;14.19;65.29;99756.72;5071350;28;45590;-76
2023/04/23 08:25:13;;;;;;;;;8.00;6.75;;;;;14.21;65.00;99745.03;5069973;27;45769;-79
2023/04/23 08:27:38;;;;;;;;;8.75;8.50;;;;;14.24;65.78;99731.56;5063045;28;45609;-75
2023/04/23 08:30:07;;;;;;;;;8.25;5.50;;;;;14.26;65.40;99724.31;5069190;27;45787;-74
2023/04/23 08:32:33;;;;;;;;;6.25;6.00;;;;;14.29;65.28;99720.56;5068671;27;45711;-73
2023/04/23 08:34:58;;;;;;;;;8.00;6.50;;;;;14.33;65.35;99705.25;5063717;28;45706;-76
2023/04/23 08:37:24;;;;;;;;;8.50;7.75;;;;;14.38;65.67;99709.09;5070752;28;46259;-75
2023/04/23 08:39:49;;;;;;;;;6.50;6.00;;;;;14.43;65.39;99711.28;5063907;27;45798;-75
2023/04/23 08:42:23;;;;;;;;;7.25;7.00;;;;;14.49;65.60;99716.75;5069387;27;45963;-74
2023/04/23 08:44:51;;;;;;;;;9.25;8.00;;;;;14.56;65.70;99698.50;5063316;27;45761;-74
2023/04/23 08:47:18;;;;;;;;;6.75;6.75;;;;;14.59;65.50;99685.00;5070514;28;45933;-73
2023/04/23 08:49:45;;;;;;;;;10.00;9.75;;;;;14.62;65.40;99672.34;5070306;27;45716;-76
2023/04/23 08:52:21;;;;;;;;;7.75;6.50;;;;;14.68;65.57;99665.63;5069788;27;45738;-76
2023/04/23 08:54:52;;;;;;;;;8.00;8.00;;;;;14.68;65.55;99658.50;5070599;28;46686;-75
2023/04/23 08:57:18;;;;;;;;;6.75;5.75;;;;;14.73;65.58;99655.44;5070542;28;46100;-77
2023/04/23 08:59:46;;;;;;;;;8.25;7.25;;;;;14.81;65.54;99654.63;5069924;27;45652;-76
2023/04/23 09:02:11;;;;;;;;;9.75;8.50;;;;;14.87;65.58;99651.34;5065539;27;45976;-76
2023/04/23 09:04:37;;;;;;;;;5.75;5.75;;;;;14.92;65.63;99644.59;5062822;27;48278;-75
2023/04/23 09:07:10;;;;;;;;;10.75;9.25;;;;;14.95;65.37;99639.00;5060450;27;46061;-73
2023/04/23 09:09:40;;;;;;;;;10.00;7.25;;;;;15.01;65.19;99624.34;5069691;28;46151;-78
2023/04/23 09:12:06;;;;;;;;;9.75;9.75;;;;;15.08;65.15;99620.91;5080173;27;46371;-75
2023/04/23 09:14:33;;;;;;;;;10.25;8.75;;;;;15.08;65.40;99607.72;5068879;28;48505;-75
2023/04/23 09:16:58;;;;;;;;;9.00;8.75;;;;;15.12;65.25;99605.56;5067839;28;45960;-74
2023/04/23 09:19:26;;;;;;;;;6.25;6.00;;;;;15.17;65.19;99610.38;5066264;27;45748;-74
2023/04/23 09:21:52;;;;;;;;;10.50;10.00;;;;;15.23;65.25;99593.88;5070055;27;45659;-75
2023/04/23 09:24:21;;;;;;;;;8.25;7.75;;;;;15.26;65.10;99590.91;5069417;28;46327;-75
2023/04/23 09:26:49;;;;;;;;;8.00;7.75;;;;;15.29;64.78;99580.03;5059912;28;47030;-76
2023/04/23 09:29:20;;;;;;;;;7.00;7.00;;;;;15.34;64.95;99575.06;5069997;28;45967;-77
2023/04/23 09:31:46;;;;;;;;;9.50;7.00;;;;;15.39;64.87;99563.03;5061440;27;46062;-77
2023/04/23 09:34:16;;;;;;;;;6.50;6.50;;;;;15.45;64.80;99574.75;5063715;28;48303;-76
2023/04/23 09:36:43;;;;;;;;;7.25;7.00;;;;;15.48;64.38;99563.88;5057405;28;46254;-76
2023/04/23 09:39:14;;;;;;;;;8.50;8.50;;;;;15.56;64.32;99555.97;5059107;28;45859;-76
2023/04/23 09:41:39;;;;;;;;;8.25;6.00;;;;;15.59;63.98;99553.00;5067903;27;46216;-79
2023/04/23 09:44:05;;;;;;;;;7.00;7.00;;;;;15.64;63.50;99552.50;5071330;27;48014;-75
2023/04/23 09:46:35;;;;;;;;;7.00;6.00;;;;;15.69;64.07;99543.09;5071463;27;47490;-74
2023/04/23 09:49:09;;;;;;;;;10.25;7.00;;;;;15.79;63.86;99538.44;5069715;27;46300;-74
2023/04/23 09:51:39;;;;;;;;;6.25;5.50;;;;;15.88;63.37;99550.63;5062757;27;45837;-76
2023/04/23 09:54:14;;;;;;;;;10.75;8.00;;;;;15.97;63.22;99545.34;5071831;28;47564;-77
2023/04/23 09:56:41;;;;;;;;;5.75;5.75;;;;;16.03;62.71;99544.66;5066156;28;47365;-74
2023/04/23 09:59:26;;;;;;;;;6.50;6.00;;;;;16.05;62.83;99540.84;5080824;27;45913;-77
2023/04/23 10:01:52;;;;;;;;;7.00;5.00;;;;;16.02;62.65;99533.25;5064536;28;45801;-76
2023/04/23 10:04:20;;;;;;;;;5.75;5.00;;;;;16.00;62.38;99531.78;5086151;27;47915;-77
2023/04/23 10:06:47;;;;;;;;;6.75;5.50;;;;;15.96;62.15;99523.38;5064326;28;47337;-75
2023/04/23 10:09:12;;;;;;;;;6.75;6.00;;;;;15.94;62.52;99509.50;5067609;28;45784;-75
2023/04/23 10:11:39;;;;;;;;;6.00;6.00;;;;;15.96;62.24;99515.44;5071087;27;45634;-76
2023/04/23 10:14:05;;;;;;;;;6.00;6.00;;;;;15.94;61.97;99499.75;5070840;28;47478;-81
2023/04/23 10:16:30;;;;;;;;;5.75;5.75;;;;;15.92;62.07;99500.94;5065607;28;47916;-76
2023/04/23 10:18:58;;;;;;;;;6.75;6.00;;;;;15.90;61.89;99505.56;5072157;27;45722;-75
2023/04/23 10:21:28;;;;;;;;;5.50;5.50;;;;;15.90;61.92;99492.34;5066850;27;45734;-75
2023/04/23 10:23:55;;;;;;;;;7.00;5.75;;;;;15.94;61.80;99480.44;5067482;28;46520;-77
2023/04/23 10:26:23;;;;;;;;;5.50;5.00;;;;;15.99;61.47;99478.09;5066978;27;46510;-77
2023/04/23 10:28:49;;;;;;;;;7.00;5.25;;;;;16.07;61.39;99469.34;5069867;28;46150;-74
2023/04/23 10:31:18;;;;;;;;;4.00;4.00;;;;;16.13;61.05;99474.75;5067845;27;45847;-76
2023/04/23 10:33:46;;;;;;;;;8.25;7.25;;;;;16.21;61.05;99476.53;5071573;28;46947;-74
2023/04/23 10:36:11;;;;;;;;;6.00;5.00;;;;;16.23;60.84;99464.78;5072498;28;46092;-77
2023/04/23 10:38:40;;;;;;;;;3.75;3.75;;;;;16.22;60.75;99459.66;5072874;28;45775;-77
2023/04/23 10:41:07;;;;;;;;;4.25;4.00;;;;;16.21;60.84;99458.84;5069545;27;45549;-75
2023/04/23 10:43:32;;;;;;;;;6.00;6.00;;;;;16.18;60.63;99448.63;5066741;28;45655;-76
2023/04/23 10:45:59;;;;;;;;;3.75;3.75;;;;;16.18;60.48;99440.72;5068458;28;46029;-76
2023/04/23 10:48:30;;;;;;;;;4.00;4.00;;;;;16.18;60.63;99424.03;5067503;28;46044;-76
2023/04/23 10:50:58;;;;;;;;;5.75;4.50;;;;;16.13;60.56;99429.00;5069302;27;45736;-77
2023/04/23 10:53:25;;;;;;;;;5.00;4.25;;;;;16.11;60.46;99426.53;5068730;28;45822;-75
2023/04/23 10:56:05;;;;;;;;;3.00;3.00;;;;;16.07;60.19;99419.97;5064127;28;46137;-76
2023/04/23 10:58:50;;;;;;;;;3.25;3.00;;;;;16.03;60.20;99404.63;5072206;27;46008;-77
2023/04/23 11:01:17;;;;;;;;;4.25;4.00;;;;;16.00;60.21;99392.56;5066133;28;45750;-76
2023/04/23 11:03:43;;;;;;;;;3.00;3.00;;;;;15.97;60.20;99407.97;5071117;28;45694;-76
2023/04/23 11:06:14;;;;;;;;;4.50;4.00;;;;;15.92;60.46;99390.78;5061362;28;46120;-76
2023/04/23 11:08:51;;;;;;;;;3.75;3.00;;;;;15.90;60.21;99379.59;5066679;28;45799;-75
2023/04/23 11:11:16;;;;;;;;;5.00;4.75;;;;;15.92;60.18;99382.06;5068358;28;45553;-78
2023/04/23 11:14:13;;;;;;;;;4.50;3.75;;;;;15.87;60.23;99371.19;5061047;27;46830;-77
2023/04/23 11:16:39;;;;;;;;;5.00;4.00;;;;;15.83;60.03;99359.31;5061455;27;45982;-77
2023/04/23 11:19:12;;;;;;;;;4.00;3.00;;;;;15.78;60.28;99348.44;5069251;28;45678;-75
2023/04/23 11:21:59;;;;;;;;;4.50;4.00;;;;;15.75;60.34;99344.34;5064421;28;45806;-76
2023/04/23 11:24:28;;;;;;;;;2.00;2.00;;;;;15.76;60.71;99350.44;5068197;28;45799;-76
2023/04/23 11:26:53;;;;;;;;;2.75;2.00;;;;;15.70;60.87;99349.31;5071725;28;46140;-76
2023/04/23 11:29:23;;;;;;;;;4.25;4.00;;;;;15.67;61.13;99328.53;5072398;27;45729;-76